Flight Track Log - Related Links

Times and Time Zones

All times are in EDT time to prevent confusion due to time zone crossing. See the C-GWFB flight status page for this flight to view local times or setup timezone preferences in your user account.

Time Position Orientation Groundspeed Altitude Reporting Facility
EDT Latitude Longitude Course Direction KTS MPH feet Rate Location/Type
Wed 03:15:00 PM 41.4463 -84.1778 66° East  Level FlightAware Approximate
Wed 03:16:00 PM 41.4607 -84.1345 66° East  Level FlightAware Approximate
Wed 03:17:00 PM 41.4778 -84.0931 58° Northeast  Level FlightAware Approximate
Wed 03:18:00 PM 41.4852 -84.0454 78° East  Level FlightAware Approximate
Wed 03:19:00 PM 41.4927 -83.9977 78° East  Level FlightAware Approximate
Wed 03:20:00 PM 41.5001 -83.9500 78° East  Level FlightAware Approximate
Wed 03:21:00 PM 41.5075 -83.9023 78° East  Level FlightAware Approximate
Wed 03:22:00 PM 41.5149 -83.8546 78° East  Level FlightAware Approximate
Wed 03:23:00 PM 41.5223 -83.8068 78° East  Level FlightAware Approximate
Wed 03:24:00 PM 41.5297 -83.7591 78° East  Level FlightAware Approximate
Wed 03:25:00 PM 41.5370 -83.7113 78° East  Level FlightAware Approximate
Wed 03:26:00 PM 41.5443 -83.6635 78° East  Level FlightAware Approximate
Wed 03:27:00 PM 41.5516 -83.6158 78° East  Level FlightAware Approximate
Wed 03:27:30 PM 41.5658 -83.6028 70° East 135 155 7,100  Level Cleveland Center
Wed 03:28:00 PM 41.5589 -83.5680 78° East  Level FlightAware Approximate
Wed 03:28:56 PM 41.5822 -83.5314 73° East 134 154 7,100  Level Cleveland Center
Wed 03:29:00 PM 41.5672 -83.5146 70° East  Level FlightAware Approximate
Wed 03:29:56 PM 41.6061 -83.4908 52° Northeast 147 169 7,100  Level Cleveland Center
Wed 03:30:00 PM 41.5798 -83.4689 70° East  Level FlightAware Approximate
Wed 03:30:51 PM 41.6239 -83.4528 58° Northeast 142 163 7,000  Level Cleveland Center
Wed 03:31:00 PM 41.5924 -83.4231 70° East  Level FlightAware Approximate
Wed 03:31:58 PM 41.6522 -83.4011 54° Northeast 145 167 7,000  Level Cleveland Center
Wed 03:32:00 PM 41.6050 -83.3772 70° East  Level FlightAware Approximate
Wed 03:33:05 PM 41.6764 -83.3522 56° Northeast 142 163 7,000  Level Cleveland Center
Wed 03:34:06 PM 41.6983 -83.3086 56° Northeast 141 162 7,000  Level Cleveland Center
Wed 03:35:07 PM 41.7181 -83.2650 59° Northeast 137 158 7,000  Level Cleveland Center
Wed 03:36:02 PM 41.7397 -83.2269 53° Northeast 140 161 7,000  Level Cleveland Center
Wed 03:37:03 PM 41.7617 -83.1833 56° Northeast 141 162 7,000  Level Cleveland Center
Wed 03:38:10 PM 41.7878 -83.1342 55° Northeast 140 161 7,000  Level Cleveland Center
Wed 03:39:16 PM 41.8117 -83.0878 55° Northeast 139 160 7,000  Level Cleveland Center
Wed 03:40:17 PM 41.8333 -83.0467 55° Northeast 137 158 7,000  Level Cleveland Center
Wed 03:41:18 PM 41.8531 -83.0031 59° Northeast 134 154 7,000  Level Cleveland Center
Wed 03:42:19 PM 41.8747 -82.9619 55° Northeast 135 155 7,000  Level Cleveland Center
Wed 03:43:10 PM 41.8900 -82.9289 58° Northeast 140 161 7,000  Level Cleveland Center
Wed 03:44:10 PM 41.9097 -82.8850 59° Northeast 140 161 7,000  Level Cleveland Center
Wed 03:45:10 PM 41.9314 -82.8467 53° Northeast 135 155 7,000  Level Cleveland Center
Wed 03:46:10 PM 41.9508 -82.8028 59° Northeast 135 155 7,000  Level Cleveland Center
Wed 03:47:10 PM 41.9725 -82.7644 53° Northeast 135 155 7,000  Level Cleveland Center
Wed 03:48:10 PM 41.9942 -82.7178 58° Northeast 135 155 7,000  Level Cleveland Center
Wed 03:49:10 PM 42.0158 -82.6764 55° Northeast 135 155 7,000  Level Cleveland Center
Wed 03:50:10 PM 42.0353 -82.6353 58° Northeast 130 150 7,000  Level Cleveland Center
Wed 03:51:10 PM 42.0569 -82.5911 57° Northeast 130 150 7,000  Level Cleveland Center
Wed 03:52:10 PM 42.0786 -82.5525 53° Northeast 130 150 7,000  Level Cleveland Center
Wed 03:53:10 PM 42.0981 -82.5083 59° Northeast 130 150 7,000  Level Cleveland Center
Wed 03:54:10 PM 42.1194 -82.4672 55° Northeast 130 150 7,000  Level Cleveland Center
Wed 03:55:10 PM 42.1389 -82.4256 58° Northeast 130 150 7,000  Level Cleveland Center
Wed 03:56:10 PM 42.1606 -82.3842 55° Northeast 130 150 7,000  Level Cleveland Center
Wed 03:57:10 PM 42.1819 -82.3400 57° Northeast 130 150 7,000  Level Cleveland Center
Wed 03:58:10 PM 42.2014 -82.2986 58° Northeast 125 144 7,000 -50 Level Cleveland Center
Wed 03:59:10 PM 42.2228 -82.2569 55° Northeast 125 144 6,900 -50 Descending Cleveland Center
Wed 04:00:10 PM 42.2444 -82.2128 56° Northeast 125 144 6,900 50 Level Cleveland Center
Wed 04:01:10 PM 42.2658 -82.1739 53° Northeast 125 144 7,000  Climbing Cleveland Center
Wed 04:02:10 PM 42.2831 -82.1325 61° Northeast 125 144 6,900  Descending Cleveland Center
Wed 04:03:10 PM 42.3067 -82.0853 56° Northeast 125 144 7,000 50 Climbing Cleveland Center
Wed 04:04:10 PM 42.3258 -82.0408 60° Northeast 125 144 7,000 -50 Level Cleveland Center
Wed 04:05:10 PM 42.3453 -81.9992 58° Northeast 125 144 6,900 -50 Descending Cleveland Center
Wed 04:06:10 PM 42.3664 -81.9603 54° Northeast 130 150 6,900  Level Cleveland Center
Wed 04:07:10 PM 42.3878 -81.9156 57° Northeast 125 144 6,900  Level Cleveland Center
Wed 04:08:10 PM 42.4072 -81.8739 58° Northeast 125 144 6,900  Level Cleveland Center
Wed 04:09:10 PM 42.4264 -81.8319 58° Northeast 120 138 6,900  Level Cleveland Center
Wed 04:10:10 PM 42.4475 -81.7931 54° Northeast 125 144 6,900  Level Cleveland Center
Wed 04:11:10 PM 42.4689 -81.7514 55° Northeast 125 144 6,900  Level Cleveland Center
Wed 04:12:10 PM 42.4858 -81.7150 58° Northeast 125 144 6,900  Level Cleveland Center
Wed 04:13:10 PM 42.5050 -81.6758 56° Northeast 125 144 6,900  Level Cleveland Center
Wed 04:14:10 PM 42.5264 -81.6311 57° Northeast 125 144 6,900  Level Cleveland Center
Wed 04:15:10 PM 42.5456 -81.5892 58° Northeast 125 144 6,900 50 Level Cleveland Center
Wed 04:16:10 PM 42.5644 -81.5500 57° Northeast 125 144 7,000 -100 Climbing Cleveland Center
Wed 04:17:10 PM 42.5836 -81.5081 58° Northeast 125 144 6,700 -350 Descending Cleveland Center
Wed 04:18:10 PM 42.6047 -81.4661 56° Northeast 125 144 6,300 -400 Descending Cleveland Center
Wed 04:19:10 PM 42.6281 -81.4214 55° Northeast 125 144 5,900 -500 Descending Cleveland Center
Wed 04:20:10 PM 42.6472 -81.3792 58° Northeast 125 144 5,300 -450 Descending Cleveland Center
Wed 04:21:10 PM 42.6661 -81.3369 59° Northeast 125 144 5,000 -150 Descending Cleveland Center
Wed 04:22:10 PM 42.6831 -81.3006 58° Northeast 120 138 5,000  Level Cleveland Center
Wed 04:23:10 PM 42.7019 -81.2611 57° Northeast 120 138 5,000  Level Cleveland Center
Wed 04:24:10 PM 42.7211 -81.2247 54° Northeast 120 138 5,000  Level Cleveland Center
Wed 04:25:10 PM 42.7378 -81.1853 60° Northeast 120 138 5,000  Level Cleveland Center
Wed 04:26:10 PM 42.7569 -81.1486 55° Northeast 120 138 5,000  Level Cleveland Center
Wed 04:27:10 PM 42.7758 -81.1092 57° Northeast 120 138 5,000  Level Cleveland Center
Wed 04:28:45 PM 42.7833 -81.0167 84° East 120 138 5,000 -39 Level Toronto Center
Wed 04:29:45 PM 42.8000 -81.0000 36° Northeast 120 138 4,900 -100 Descending Toronto Center

Login

Don't have an account? Register now (free) for customized features, flight alerts, and more!